sensor_id;sensor_type;location;lat;lon;timestamp;pressure;altitude;pressure_sealevel;temperature;humidity
70302;BME280;57706;56.326;43.882;2023-12-04T00:01:22;99162.03;;;-4.32;100.00
70302;BME280;57706;56.326;43.882;2023-12-04T00:03:48;99161.16;;;-4.18;100.00
70302;BME280;57706;56.326;43.882;2023-12-04T00:06:14;99167.84;;;-4.16;100.00
70302;BME280;57706;56.326;43.882;2023-12-04T00:08:40;99163.72;;;-4.18;100.00
70302;BME280;57706;56.326;43.882;2023-12-04T00:11:06;99162.38;;;-4.24;100.00
70302;BME280;57706;56.326;43.882;2023-12-04T00:13:32;99162.03;;;-4.32;100.00
70302;BME280;57706;56.326;43.882;2023-12-04T00:15:59;99162.25;;;-4.35;100.00
70302;BME280;57706;56.326;43.882;2023-12-04T00:18:25;99158.78;;;-4.21;100.00
70302;BME280;57706;56.326;43.882;2023-12-04T00:20:51;99164.78;;;-4.08;100.00
70302;BME280;57706;56.326;43.882;2023-12-04T00:23:17;99161.31;;;-4.07;100.00
70302;BME280;57706;56.326;43.882;2023-12-04T00:25:43;99156.50;;;-3.98;100.00
70302;BME280;57706;56.326;43.882;2023-12-04T00:28:09;99156.97;;;-4.06;100.00
70302;BME280;57706;56.326;43.882;2023-12-04T00:30:35;99148.56;;;-4.08;100.00
70302;BME280;57706;56.326;43.882;2023-12-04T00:33:02;99147.69;;;-4.22;100.00
70302;BME280;57706;56.326;43.882;2023-12-04T00:35:28;99151.84;;;-4.06;100.00
70302;BME280;57706;56.326;43.882;2023-12-04T00:37:53;99162.13;;;-4.06;100.00
70302;BME280;57706;56.326;43.882;2023-12-04T00:40:19;99159.41;;;-3.90;100.00
70302;BME280;57706;56.326;43.882;2023-12-04T00:42:45;99157.63;;;-3.90;100.00
70302;BME280;57706;56.326;43.882;2023-12-04T00:45:11;99154.22;;;-4.03;100.00
70302;BME280;57706;56.326;43.882;2023-12-04T00:47:37;99157.84;;;-3.93;100.00
70302;BME280;57706;56.326;43.882;2023-12-04T00:50:03;99156.00;;;-3.91;100.00
70302;BME280;57706;56.326;43.882;2023-12-04T00:52:30;99152.25;;;-4.12;100.00
70302;BME280;57706;56.326;43.882;2023-12-04T00:54:56;99148.50;;;-4.34;100.00
70302;BME280;57706;56.326;43.882;2023-12-04T00:57:22;99145.47;;;-4.13;100.00
70302;BME280;57706;56.326;43.882;2023-12-04T00:59:48;99155.09;;;-4.17;100.00
70302;BME280;57706;56.326;43.882;2023-12-04T01:02:14;99150.59;;;-4.13;100.00
70302;BME280;57706;56.326;43.882;2023-12-04T01:04:40;99147.56;;;-3.93;100.00
70302;BME280;57706;56.326;43.882;2023-12-04T01:07:07;99139.13;;;-3.95;100.00
70302;BME280;57706;56.326;43.882;2023-12-04T01:09:36;99147.16;;;-3.87;100.00
70302;BME280;57706;56.326;43.882;2023-12-04T01:12:03;99150.25;;;-3.81;100.00
70302;BME280;57706;56.326;43.882;2023-12-04T01:14:29;99150.47;;;-3.84;100.00
70302;BME280;57706;56.326;43.882;2023-12-04T01:16:56;99136.50;;;-3.80;100.00
70302;BME280;57706;56.326;43.882;2023-12-04T01:19:22;99136.16;;;-3.89;100.00
70302;BME280;57706;56.326;43.882;2023-12-04T01:21:48;99123.53;;;-3.92;100.00
70302;BME280;57706;56.326;43.882;2023-12-04T01:24:15;99119.94;;;-4.02;100.00
70302;BME280;57706;56.326;43.882;2023-12-04T01:26:41;99121.66;;;-4.16;100.00
70302;BME280;57706;56.326;43.882;2023-12-04T01:29:07;99113.84;;;-4.27;100.00
70302;BME280;57706;56.326;43.882;2023-12-04T01:31:33;99110.34;;;-4.26;100.00
70302;BME280;57706;56.326;43.882;2023-12-04T01:33:59;99107.72;;;-3.98;100.00
70302;BME280;57706;56.326;43.882;2023-12-04T01:36:25;99105.16;;;-3.98;100.00
70302;BME280;57706;56.326;43.882;2023-12-04T01:38:50;99096.41;;;-3.96;100.00
70302;BME280;57706;56.326;43.882;2023-12-04T01:41:16;99093.84;;;-3.96;100.00
70302;BME280;57706;56.326;43.882;2023-12-04T01:43:42;99094.97;;;-4.00;100.00
70302;BME280;57706;56.326;43.882;2023-12-04T01:46:09;99101.03;;;-4.01;100.00
70302;BME280;57706;56.326;43.882;2023-12-04T01:48:36;99092.22;;;-3.97;100.00
70302;BME280;57706;56.326;43.882;2023-12-04T01:51:06;99089.78;;;-3.85;100.00
70302;BME280;57706;56.326;43.882;2023-12-04T01:53:35;99091.72;;;-4.02;100.00
70302;BME280;57706;56.326;43.882;2023-12-04T01:56:02;99090.03;;;-4.03;100.00
70302;BME280;57706;56.326;43.882;2023-12-04T01:58:28;99093.94;;;-4.10;100.00
70302;BME280;57706;56.326;43.882;2023-12-04T02:00:54;99101.53;;;-3.96;100.00
70302;BME280;57706;56.326;43.882;2023-12-04T02:03:20;99109.78;;;-3.91;100.00
70302;BME280;57706;56.326;43.882;2023-12-04T02:05:47;99108.06;;;-3.77;100.00
70302;BME280;57706;56.326;43.882;2023-12-04T02:08:14;99113.28;;;-3.66;100.00
70302;BME280;57706;56.326;43.882;2023-12-04T02:10:40;99110.31;;;-3.72;100.00
70302;BME280;57706;56.326;43.882;2023-12-04T02:13:06;99109.78;;;-3.91;100.00
70302;BME280;57706;56.326;43.882;2023-12-04T02:15:33;99110.78;;;-3.93;100.00
70302;BME280;57706;56.326;43.882;2023-12-04T02:18:02;99109.25;;;-3.96;100.00
70302;BME280;57706;56.326;43.882;2023-12-04T02:20:33;99112.66;;;-3.95;100.00
70302;BME280;57706;56.326;43.882;2023-12-04T02:23:00;99116.44;;;-4.01;100.00
70302;BME280;57706;56.326;43.882;2023-12-04T02:25:27;99113.88;;;-4.01;100.00
70302;BME280;57706;56.326;43.882;2023-12-04T02:27:54;99113.91;;;-3.88;100.00
70302;BME280;57706;56.326;43.882;2023-12-04T02:30:23;99112.75;;;-3.97;100.00
70302;BME280;57706;56.326;43.882;2023-12-04T02:32:50;99113.47;;;-3.95;100.00
70302;BME280;57706;56.326;43.882;2023-12-04T02:35:22;99117.78;;;-3.95;100.00
70302;BME280;57706;56.326;43.882;2023-12-04T02:37:49;99115.94;;;-3.80;100.00
70302;BME280;57706;56.326;43.882;2023-12-04T02:40:15;99110.19;;;-3.71;100.00
70302;BME280;57706;56.326;43.882;2023-12-04T02:42:42;99107.31;;;-3.79;100.00
70302;BME280;57706;56.326;43.882;2023-12-04T02:45:08;99111.84;;;-3.70;100.00
70302;BME280;57706;56.326;43.882;2023-12-04T02:47:34;99119.22;;;-3.78;100.00
70302;BME280;57706;56.326;43.882;2023-12-04T02:50:00;99118.81;;;-3.72;100.00
70302;BME280;57706;56.326;43.882;2023-12-04T02:52:26;99113.50;;;-3.69;100.00
70302;BME280;57706;56.326;43.882;2023-12-04T02:54:51;99118.34;;;-3.64;100.00
70302;BME280;57706;56.326;43.882;2023-12-04T02:57:17;99111.50;;;-3.91;100.00
70302;BME280;57706;56.326;43.882;2023-12-04T02:59:43;99117.41;;;-3.76;100.00
70302;BME280;57706;56.326;43.882;2023-12-04T03:02:09;99113.91;;;-3.75;100.00
70302;BME280;57706;56.326;43.882;2023-12-04T03:04:35;99114.31;;;-3.81;100.00
70302;BME280;57706;56.326;43.882;2023-12-04T03:07:01;99111.66;;;-3.80;100.00
70302;BME280;57706;56.326;43.882;2023-12-04T03:09:27;99118.72;;;-3.83;100.00
70302;BME280;57706;56.326;43.882;2023-12-04T03:11:53;99120.69;;;-3.74;100.00
70302;BME280;57706;56.326;43.882;2023-12-04T03:14:19;99110.41;;;-3.74;100.00
70302;BME280;57706;56.326;43.882;2023-12-04T03:16:45;99119.66;;;-3.84;100.00
70302;BME280;57706;56.326;43.882;2023-12-04T03:19:11;99115.13;;;-3.81;100.00
70302;BME280;57706;56.326;43.882;2023-12-04T03:21:37;99120.47;;;-3.71;100.00
70302;BME280;57706;56.326;43.882;2023-12-04T03:24:03;99120.47;;;-3.71;100.00
70302;BME280;57706;56.326;43.882;2023-12-04T03:26:29;99118.63;;;-3.69;100.00
70302;BME280;57706;56.326;43.882;2023-12-04T03:28:54;99120.91;;;-3.64;100.00
70302;BME280;57706;56.326;43.882;2023-12-04T03:31:21;99130.97;;;-3.61;100.00
70302;BME280;57706;56.326;43.882;2023-12-04T03:33:47;99122.53;;;-3.50;100.00
70302;BME280;57706;56.326;43.882;2023-12-04T03:36:13;99123.78;;;-3.82;100.00
70302;BME280;57706;56.326;43.882;2023-12-04T03:38:39;99133.44;;;-3.72;100.00
70302;BME280;57706;56.326;43.882;2023-12-04T03:41:07;99143.50;;;-3.69;100.00
70302;BME280;57706;56.326;43.882;2023-12-04T03:43:38;99147.59;;;-3.67;100.00
70302;BME280;57706;56.326;43.882;2023-12-04T03:46:04;99151.09;;;-3.68;100.00
70302;BME280;57706;56.326;43.882;2023-12-04T03:48:30;99149.78;;;-3.61;100.00
70302;BME280;57706;56.326;43.882;2023-12-04T03:50:56;99150.50;;;-3.58;100.00
70302;BME280;57706;56.326;43.882;2023-12-04T03:53:22;99154.91;;;-3.61;100.00
70302;BME280;57706;56.326;43.882;2023-12-04T03:55:48;99146.78;;;-3.67;100.00
70302;BME280;57706;56.326;43.882;2023-12-04T03:58:14;99155.63;;;-3.58;100.00
70302;BME280;57706;56.326;43.882;2023-12-04T04:00:40;99153.16;;;-3.47;100.00
70302;BME280;57706;56.326;43.882;2023-12-04T04:03:12;99159.00;;;-3.45;100.00
70302;BME280;57706;56.326;43.882;2023-12-04T04:05:38;99158.50;;;-3.50;100.00
70302;BME280;57706;56.326;43.882;2023-12-04T04:08:04;99156.66;;;-3.48;100.00
70302;BME280;57706;56.326;43.882;2023-12-04T04:10:33;99164.06;;;-3.43;100.00
70302;BME280;57706;56.326;43.882;2023-12-04T04:12:59;99162.81;;;-3.38;100.00
70302;BME280;57706;56.326;43.882;2023-12-04T04:15:25;99177.41;;;-3.38;100.00
70302;BME280;57706;56.326;43.882;2023-12-04T04:17:52;99175.66;;;-3.38;100.00
70302;BME280;57706;56.326;43.882;2023-12-04T04:20:20;99173.53;;;-3.44;100.00
70302;BME280;57706;56.326;43.882;2023-12-04T04:22:48;99180.59;;;-3.48;100.00
70302;BME280;57706;56.326;43.882;2023-12-04T04:25:14;99180.78;;;-3.38;100.00
70302;BME280;57706;56.326;43.882;2023-12-04T04:27:40;99180.50;;;-3.33;100.00
70302;BME280;57706;56.326;43.882;2023-12-04T04:30:06;99176.59;;;-3.39;100.00
70302;BME280;57706;56.326;43.882;2023-12-04T04:32:34;99186.56;;;-3.34;100.00
70302;BME280;57706;56.326;43.882;2023-12-04T04:35:00;99187.47;;;-3.48;100.00
70302;BME280;57706;56.326;43.882;2023-12-04T04:37:26;99194.69;;;-3.40;100.00
70302;BME280;57706;56.326;43.882;2023-12-04T04:39:51;99193.25;;;-3.32;100.00
70302;BME280;57706;56.326;43.882;2023-12-04T04:42:17;99197.34;;;-3.42;100.00
70302;BME280;57706;56.326;43.882;2023-12-04T04:44:45;99194.06;;;-3.44;100.00
70302;BME280;57706;56.326;43.882;2023-12-04T04:47:10;99199.41;;;-3.34;100.00
70302;BME280;57706;56.326;43.882;2023-12-04T04:49:36;99206.69;;;-3.54;100.00
70302;BME280;57706;56.326;43.882;2023-12-04T04:52:02;99210.28;;;-3.43;100.00
70302;BME280;57706;56.326;43.882;2023-12-04T04:54:31;99210.69;;;-3.37;100.00
70302;BME280;57706;56.326;43.882;2023-12-04T04:56:57;99215.66;;;-3.34;100.00
70302;BME280;57706;56.326;43.882;2023-12-04T04:59:23;99214.41;;;-3.28;100.00
70302;BME280;57706;56.326;43.882;2023-12-04T05:01:49;99226.25;;;-3.25;100.00
70302;BME280;57706;56.326;43.882;2023-12-04T05:04:16;99223.78;;;-3.27;100.00
70302;BME280;57706;56.326;43.882;2023-12-04T05:06:41;99227.91;;;-3.24;100.00
70302;BME280;57706;56.326;43.882;2023-12-04T05:09:07;99227.81;;;-3.23;100.00
70302;BME280;57706;56.326;43.882;2023-12-04T05:11:34;99240.75;;;-3.24;100.00
70302;BME280;57706;56.326;43.882;2023-12-04T05:14:00;99232.31;;;-3.26;100.00
70302;BME280;57706;56.326;43.882;2023-12-04T05:16:26;99244.44;;;-3.28;100.00
70302;BME280;57706;56.326;43.882;2023-12-04T05:18:52;99240.13;;;-3.28;100.00
70302;BME280;57706;56.326;43.882;2023-12-04T05:21:18;99250.81;;;-3.34;100.00
70302;BME280;57706;56.326;43.882;2023-12-04T05:23:43;99261.81;;;-3.32;100.00
70302;BME280;57706;56.326;43.882;2023-12-04T05:26:09;99256.97;;;-3.37;100.00
70302;BME280;57706;56.326;43.882;2023-12-04T05:28:36;99264.16;;;-3.42;100.00
70302;BME280;57706;56.326;43.882;2023-12-04T05:31:02;99258.63;;;-3.36;100.00
70302;BME280;57706;56.326;43.882;2023-12-04T05:33:29;99268.47;;;-3.29;100.00
70302;BME280;57706;56.326;43.882;2023-12-04T05:35:55;99263.56;;;-3.33;100.00
70302;BME280;57706;56.326;43.882;2023-12-04T05:38:21;99269.53;;;-3.32;100.00
70302;BME280;57706;56.326;43.882;2023-12-04T05:40:47;99279.59;;;-3.29;100.00
70302;BME280;57706;56.326;43.882;2023-12-04T05:43:13;99280.41;;;-3.28;100.00
70302;BME280;57706;56.326;43.882;2023-12-04T05:45:39;99279.69;;;-3.30;100.00
70302;BME280;57706;56.326;43.882;2023-12-04T05:48:05;99280.13;;;-3.24;100.00
70302;BME280;57706;56.326;43.882;2023-12-04T05:50:31;99284.44;;;-3.24;100.00
70302;BME280;57706;56.326;43.882;2023-12-04T05:52:57;99293.78;;;-3.23;100.00
70302;BME280;57706;56.326;43.882;2023-12-04T05:55:24;99286.41;;;-3.15;100.00
70302;BME280;57706;56.326;43.882;2023-12-04T05:57:50;99292.47;;;-3.16;100.00
70302;BME280;57706;56.326;43.882;2023-12-04T06:00:16;99294.03;;;-3.13;100.00
70302;BME280;57706;56.326;43.882;2023-12-04T06:02:43;99306.75;;;-3.12;100.00
70302;BME280;57706;56.326;43.882;2023-12-04T06:05:09;99303.91;;;-3.07;100.00
70302;BME280;57706;56.326;43.882;2023-12-04T06:07:36;99306.91;;;-3.41;100.00
70302;BME280;57706;56.326;43.882;2023-12-04T06:10:02;99319.88;;;-3.70;100.00
70302;BME280;57706;56.326;43.882;2023-12-04T06:12:32;99321.66;;;-3.57;100.00
70302;BME280;57706;56.326;43.882;2023-12-04T06:14:58;99330.59;;;-3.91;100.00
70302;BME280;57706;56.326;43.882;2023-12-04T06:17:25;99333.13;;;-3.76;100.00
70302;BME280;57706;56.326;43.882;2023-12-04T06:19:53;99336.28;;;-4.00;100.00
70302;BME280;57706;56.326;43.882;2023-12-04T06:22:19;99330.09;;;-4.10;100.00
70302;BME280;57706;56.326;43.882;2023-12-04T06:24:48;99334.06;;;-3.92;100.00
70302;BME280;57706;56.326;43.882;2023-12-04T06:27:18;99333.81;;;-4.02;100.00
70302;BME280;57706;56.326;43.882;2023-12-04T06:29:48;99333.53;;;-3.97;100.00
70302;BME280;57706;56.326;43.882;2023-12-04T06:32:15;99344.00;;;-4.00;100.00
70302;BME280;57706;56.326;43.882;2023-12-04T06:34:41;99340.31;;;-3.96;100.00
70302;BME280;57706;56.326;43.882;2023-12-04T06:37:12;99352.53;;;-4.29;100.00
70302;BME280;57706;56.326;43.882;2023-12-04T06:39:39;99354.28;;;-4.15;100.00
70302;BME280;57706;56.326;43.882;2023-12-04T06:42:10;99354.25;;;-3.85;100.00
70302;BME280;57706;56.326;43.882;2023-12-04T06:44:37;99362.78;;;-3.99;100.00
70302;BME280;57706;56.326;43.882;2023-12-04T06:47:03;99363.91;;;-4.47;100.00
70302;BME280;57706;56.326;43.882;2023-12-04T06:49:32;99368.75;;;-4.57;100.00
70302;BME280;57706;56.326;43.882;2023-12-04T06:51:58;99375.97;;;-4.78;100.00
70302;BME280;57706;56.326;43.882;2023-12-04T06:54:24;99381.47;;;-4.70;100.00
70302;BME280;57706;56.326;43.882;2023-12-04T06:56:50;99376.28;;;-4.39;100.00
70302;BME280;57706;56.326;43.882;2023-12-04T06:59:19;99378.47;;;-4.48;100.00
70302;BME280;57706;56.326;43.882;2023-12-04T07:01:46;99387.34;;;-4.68;100.00
70302;BME280;57706;56.326;43.882;2023-12-04T07:04:13;99381.41;;;-4.39;100.00
70302;BME280;57706;56.326;43.882;2023-12-04T07:06:39;99388.72;;;-4.48;100.00
70302;BME280;57706;56.326;43.882;2023-12-04T07:09:06;99389.84;;;-4.37;100.00
70302;BME280;57706;56.326;43.882;2023-12-04T07:11:36;99388.19;;;-4.38;100.00
70302;BME280;57706;56.326;43.882;2023-12-04T07:14:02;99394.25;;;-4.10;100.00
70302;BME280;57706;56.326;43.882;2023-12-04T07:16:28;99397.91;;;-4.29;100.00
70302;BME280;57706;56.326;43.882;2023-12-04T07:18:55;99395.41;;;-4.02;100.00
70302;BME280;57706;56.326;43.882;2023-12-04T07:21:21;99408.25;;;-4.45;100.00
70302;BME280;57706;56.326;43.882;2023-12-04T07:23:47;99406.50;;;-4.59;100.00
70302;BME280;57706;56.326;43.882;2023-12-04T07:26:13;99406.50;;;-4.59;100.00
70302;BME280;57706;56.326;43.882;2023-12-04T07:28:39;99413.91;;;-4.69;100.00
70302;BME280;57706;56.326;43.882;2023-12-04T07:31:05;99405.75;;;-4.76;100.00
70302;BME280;57706;56.326;43.882;2023-12-04T07:33:31;99417.22;;;-4.52;100.00
70302;BME280;57706;56.326;43.882;2023-12-04T07:35:57;99423.06;;;-4.65;100.00
70302;BME280;57706;56.326;43.882;2023-12-04T07:38:22;99416.38;;;-4.67;100.00
70302;BME280;57706;56.326;43.882;2023-12-04T07:40:48;99412.19;;;-4.39;100.00
70302;BME280;57706;56.326;43.882;2023-12-04T07:43:14;99412.75;;;-4.20;100.00
70302;BME280;57706;56.326;43.882;2023-12-04T07:45:41;99418.59;;;-4.03;100.00
70302;BME280;57706;56.326;43.882;2023-12-04T07:48:07;99426.50;;;-4.21;100.00
70302;BME280;57706;56.326;43.882;2023-12-04T07:50:33;99426.88;;;-4.27;100.00
70302;BME280;57706;56.326;43.882;2023-12-04T07:52:59;99423.28;;;-3.95;100.00
70302;BME280;57706;56.326;43.882;2023-12-04T07:55:25;99429.63;;;-4.16;100.00
70302;BME280;57706;56.326;43.882;2023-12-04T07:57:51;99432.81;;;-4.56;100.00
70302;BME280;57706;56.326;43.882;2023-12-04T08:00:17;99438.28;;;-4.62;100.00
70302;BME280;57706;56.326;43.882;2023-12-04T08:02:44;99438.78;;;-4.26;100.00
70302;BME280;57706;56.326;43.882;2023-12-04T08:05:12;99436.22;;;-3.97;100.00
70302;BME280;57706;56.326;43.882;2023-12-04T08:07:38;99440.25;;;-3.93;100.00
70302;BME280;57706;56.326;43.882;2023-12-04T08:10:06;99452.63;;;-3.85;100.00
70302;BME280;57706;56.326;43.882;2023-12-04T08:12:32;99440.97;;;-3.76;100.00
70302;BME280;57706;56.326;43.882;2023-12-04T08:15:00;99454.75;;;-4.06;100.00
70302;BME280;57706;56.326;43.882;2023-12-04T08:17:31;99460.44;;;-4.01;100.00
70302;BME280;57706;56.326;43.882;2023-12-04T08:19:57;99452.16;;;-4.21;100.00
70302;BME280;57706;56.326;43.882;2023-12-04T08:22:22;99458.78;;;-4.17;100.00
70302;BME280;57706;56.326;43.882;2023-12-04T08:24:48;99457.09;;;-4.32;100.00
70302;BME280;57706;56.326;43.882;2023-12-04T08:27:14;99468.19;;;-4.17;100.00
70302;BME280;57706;56.326;43.882;2023-12-04T08:29:40;99462.22;;;-4.47;100.00
70302;BME280;57706;56.326;43.882;2023-12-04T08:32:06;99469.81;;;-4.45;100.00
70302;BME280;57706;56.326;43.882;2023-12-04T08:34:33;99471.09;;;-4.83;100.00
70302;BME280;57706;56.326;43.882;2023-12-04T08:36:59;99479.00;;;-4.72;100.00
70302;BME280;57706;56.326;43.882;2023-12-04T08:39:25;99486.03;;;-4.45;100.00
70302;BME280;57706;56.326;43.882;2023-12-04T08:41:51;99487.47;;;-4.55;100.00
70302;BME280;57706;56.326;43.882;2023-12-04T08:44:18;99486.06;;;-4.30;100.00
70302;BME280;57706;56.326;43.882;2023-12-04T08:46:44;99488.19;;;-4.53;100.00
70302;BME280;57706;56.326;43.882;2023-12-04T08:49:10;99485.09;;;-4.58;100.00
70302;BME280;57706;56.326;43.882;2023-12-04T08:51:36;99490.91;;;-4.71;100.00
70302;BME280;57706;56.326;43.882;2023-12-04T08:54:02;99497.78;;;-4.40;100.00
70302;BME280;57706;56.326;43.882;2023-12-04T08:56:28;99504.38;;;-4.36;100.00
70302;BME280;57706;56.326;43.882;2023-12-04T08:58:55;99502.78;;;-4.84;100.00
70302;BME280;57706;56.326;43.882;2023-12-04T09:01:24;99499.16;;;-4.96;100.00
70302;BME280;57706;56.326;43.882;2023-12-04T09:03:51;99505.59;;;-5.05;100.00
70302;BME280;57706;56.326;43.882;2023-12-04T09:06:17;99507.50;;;-4.92;100.00
70302;BME280;57706;56.326;43.882;2023-12-04T09:08:43;99514.53;;;-5.12;100.00
70302;BME280;57706;56.326;43.882;2023-12-04T09:11:09;99510.06;;;-4.92;100.00
70302;BME280;57706;56.326;43.882;2023-12-04T09:13:35;99513.63;;;-4.95;100.00
70302;BME280;57706;56.326;43.882;2023-12-04T09:16:01;99522.03;;;-4.77;100.00
70302;BME280;57706;56.326;43.882;2023-12-04T09:18:27;99515.75;;;-4.87;100.00
70302;BME280;57706;56.326;43.882;2023-12-04T09:20:53;99519.72;;;-4.98;100.00
70302;BME280;57706;56.326;43.882;2023-12-04T09:23:19;99526.91;;;-4.88;100.00
70302;BME280;57706;56.326;43.882;2023-12-04T09:25:45;99528.44;;;-4.70;100.00
70302;BME280;57706;56.326;43.882;2023-12-04T09:28:10;99529.88;;;-4.80;100.00
70302;BME280;57706;56.326;43.882;2023-12-04T09:30:36;99546.84;;;-4.77;100.00
70302;BME280;57706;56.326;43.882;2023-12-04T09:33:05;99539.81;;;-4.74;100.00
70302;BME280;57706;56.326;43.882;2023-12-04T09:35:32;99538.09;;;-4.89;100.00
70302;BME280;57706;56.326;43.882;2023-12-04T09:37:57;99559.59;;;-4.92;100.00
70302;BME280;57706;56.326;43.882;2023-12-04T09:40:23;99537.25;;;-4.74;100.00
70302;BME280;57706;56.326;43.882;2023-12-04T09:42:49;99549.75;;;-4.53;100.00
70302;BME280;57706;56.326;43.882;2023-12-04T09:45:15;99555.69;;;-4.36;100.00
70302;BME280;57706;56.326;43.882;2023-12-04T09:47:44;99557.69;;;-4.88;100.00
70302;BME280;57706;56.326;43.882;2023-12-04T09:50:11;99562.06;;;-4.90;100.00
70302;BME280;57706;56.326;43.882;2023-12-04T09:52:37;99572.31;;;-4.90;100.00
70302;BME280;57706;56.326;43.882;2023-12-04T09:55:03;99571.31;;;-5.04;100.00
70302;BME280;57706;56.326;43.882;2023-12-04T09:57:31;99563.66;;;-4.88;100.00
70302;BME280;57706;56.326;43.882;2023-12-04T09:59:57;99564.53;;;-5.05;100.00
70302;BME280;57706;56.326;43.882;2023-12-04T10:02:24;99568.34;;;-5.12;100.00
70302;BME280;57706;56.326;43.882;2023-12-04T10:04:50;99584.97;;;-5.03;100.00
70302;BME280;57706;56.326;43.882;2023-12-04T10:07:17;99585.78;;;-5.03;100.00
70302;BME280;57706;56.326;43.882;2023-12-04T10:09:43;99592.00;;;-5.07;100.00
70302;BME280;57706;56.326;43.882;2023-12-04T10:12:09;99590.28;;;-4.90;100.00
70302;BME280;57706;56.326;43.882;2023-12-04T10:14:35;99593.19;;;-4.80;100.00
70302;BME280;57706;56.326;43.882;2023-12-04T10:17:14;99589.19;;;-4.86;100.00
70302;BME280;57706;56.326;43.882;2023-12-04T10:19:41;99592.84;;;-4.90;100.00
70302;BME280;57706;56.326;43.882;2023-12-04T10:22:08;99592.41;;;-4.66;100.00
70302;BME280;57706;56.326;43.882;2023-12-04T10:24:38;99592.63;;;-4.55;100.00
70302;BME280;57706;56.326;43.882;2023-12-04T10:27:05;99594.31;;;-4.70;100.00
70302;BME280;57706;56.326;43.882;2023-12-04T10:29:49;99594.06;;;-4.65;100.00
70302;BME280;57706;56.326;43.882;2023-12-04T10:32:18;99594.06;;;-4.65;100.00
70302;BME280;57706;56.326;43.882;2023-12-04T10:34:47;99602.41;;;-4.78;100.00
70302;BME280;57706;56.326;43.882;2023-12-04T10:37:14;99612.03;;;-4.65;100.00
70302;BME280;57706;56.326;43.882;2023-12-04T10:39:47;99614.50;;;-4.64;100.00
70302;BME280;57706;56.326;43.882;2023-12-04T10:42:24;99618.88;;;-4.50;100.00
70302;BME280;57706;56.326;43.882;2023-12-04T10:44:52;99620.13;;;-4.57;100.00
70302;BME280;57706;56.326;43.882;2023-12-04T10:47:19;99633.19;;;-5.10;100.00
70302;BME280;57706;56.326;43.882;2023-12-04T10:49:49;99622.69;;;-5.39;100.00
70302;BME280;57706;56.326;43.882;2023-12-04T10:52:17;99629.53;;;-5.06;100.00
70302;BME280;57706;56.326;43.882;2023-12-04T10:54:48;99633.91;;;-5.08;100.00
70302;BME280;57706;56.326;43.882;2023-12-04T10:57:30;99635.00;;;-4.80;100.00
70302;BME280;57706;56.326;43.882;2023-12-04T11:00:02;99635.84;;;-4.63;100.00
70302;BME280;57706;56.326;43.882;2023-12-04T11:02:34;99635.41;;;-4.72;100.00
70302;BME280;57706;56.326;43.882;2023-12-04T11:05:08;99640.63;;;-4.57;100.00
70302;BME280;57706;56.326;43.882;2023-12-04T11:07:51;99642.28;;;-4.56;100.00
70302;BME280;57706;56.326;43.882;2023-12-04T11:10:21;99643.19;;;-4.57;100.00
70302;BME280;57706;56.326;43.882;2023-12-04T11:12:53;99660.50;;;-4.77;100.00
70302;BME280;57706;56.326;43.882;2023-12-04T11:15:23;99662.31;;;-4.79;100.00
70302;BME280;57706;56.326;43.882;2023-12-04T11:17:55;99673.16;;;-4.90;100.00
70302;BME280;57706;56.326;43.882;2023-12-04T11:20:27;99674.16;;;-5.44;100.00
70302;BME280;57706;56.326;43.882;2023-12-04T11:22:55;99682.38;;;-5.55;100.00
70302;BME280;57706;56.326;43.882;2023-12-04T11:25:23;99674.97;;;-5.26;100.00
70302;BME280;57706;56.326;43.882;2023-12-04T11:27:52;99680.97;;;-5.09;100.00
70302;BME280;57706;56.326;43.882;2023-12-04T11:30:20;99681.44;;;-5.18;100.00
70302;BME280;57706;56.326;43.882;2023-12-04T11:32:48;99691.28;;;-5.11;100.00
70302;BME280;57706;56.326;43.882;2023-12-04T11:35:15;99697.22;;;-4.92;100.00
70302;BME280;57706;56.326;43.882;2023-12-04T11:37:44;99703.81;;;-4.88;100.00
70302;BME280;57706;56.326;43.882;2023-12-04T11:40:16;99702.91;;;-4.87;100.00
70302;BME280;57706;56.326;43.882;2023-12-04T11:42:43;99699.41;;;-4.86;100.00
70302;BME280;57706;56.326;43.882;2023-12-04T11:45:09;99704.56;;;-5.20;100.00
70302;BME280;57706;56.326;43.882;2023-12-04T11:47:54;99718.34;;;-5.05;100.00
70302;BME280;57706;56.326;43.882;2023-12-04T11:50:20;99724.19;;;-4.85;100.00
70302;BME280;57706;56.326;43.882;2023-12-04T11:52:47;99730.47;;;-4.75;100.00
70302;BME280;57706;56.326;43.882;2023-12-04T11:55:16;99732.19;;;-4.91;100.00
70302;BME280;57706;56.326;43.882;2023-12-04T11:57:43;99732.22;;;-5.09;100.00
70302;BME280;57706;56.326;43.882;2023-12-04T12:03:00;99750.44;;;-4.98;100.00
70302;BME280;57706;56.326;43.882;2023-12-04T12:05:30;99744.25;;;-5.11;100.00
70302;BME280;57706;56.326;43.882;2023-12-04T12:08:00;99760.84;;;-5.01;100.00
70302;BME280;57706;56.326;43.882;2023-12-04T12:10:27;99752.94;;;-4.96;100.00
70302;BME280;57706;56.326;43.882;2023-12-04T12:12:53;99766.13;;;-5.04;100.00
70302;BME280;57706;56.326;43.882;2023-12-04T12:15:24;99765.81;;;-4.98;100.00
70302;BME280;57706;56.326;43.882;2023-12-04T12:17:51;99758.56;;;-4.89;100.00
70302;BME280;57706;56.326;43.882;2023-12-04T12:20:17;99769.34;;;-5.00;100.00
70302;BME280;57706;56.326;43.882;2023-12-04T12:22:43;99775.47;;;-5.03;100.00
70302;BME280;57706;56.326;43.882;2023-12-04T12:25:11;99781.03;;;-4.94;100.00
70302;BME280;57706;56.326;43.882;2023-12-04T12:27:38;99792.63;;;-4.87;100.00
70302;BME280;57706;56.326;43.882;2023-12-04T12:30:04;99793.41;;;-5.38;100.00
70302;BME280;57706;56.326;43.882;2023-12-04T12:32:34;99795.41;;;-5.26;100.00
70302;BME280;57706;56.326;43.882;2023-12-04T12:35:00;99796.88;;;-5.04;100.00
70302;BME280;57706;56.326;43.882;2023-12-04T12:37:26;99805.38;;;-4.86;100.00
70302;BME280;57706;56.326;43.882;2023-12-04T12:39:52;99808.13;;;-4.89;100.00
70302;BME280;57706;56.326;43.882;2023-12-04T12:42:22;99810.22;;;-4.97;100.00